Time;durP1;ratioP1;P1;durP2;ratioP2;P2;SDS_P1;SDS_P2;PMS_P1;PMS_P2;Temp;Humidity;BMP_temperature;BMP_pressure;BME280_temperature;BME280_humidity;BME280_pressure;Samples;Min_cycle;Max_cycle;Signal;HPM_P1;HPM_P2
2023/05/19 00:01:36;;;;;;;7.03;4.25;;;;;;;8.82;71.57;99404.47;5054585;28;20021;-73
2023/05/19 00:04:04;;;;;;;7.82;4.35;;;;;;;8.81;71.95;99404.75;5054650;28;20119;-73
2023/05/19 00:06:31;;;;;;;6.50;4.43;;;;;;;8.76;71.72;99403.63;5054579;28;20037;-73
2023/05/19 00:09:08;;;;;;;7.82;3.90;;;;;;;8.76;71.66;99402.81;5054591;28;20036;-73
2023/05/19 00:11:35;;;;;;;6.90;4.47;;;;;;;8.74;72.15;99397.59;5054463;28;20103;-73
2023/05/19 00:14:02;;;;;;;7.07;4.38;;;;;;;8.73;71.55;99393.22;5054492;28;20349;-73
2023/05/19 00:16:29;;;;;;;6.78;4.45;;;;;;;8.72;71.92;99386.09;5054437;28;20067;-73
2023/05/19 00:18:57;;;;;;;7.25;4.72;;;;;;;8.72;71.61;99396.22;5054386;28;20469;-73
2023/05/19 00:21:22;;;;;;;7.72;4.18;;;;;;;8.71;71.93;99384.44;5054169;28;20028;-73
2023/05/19 00:23:47;;;;;;;7.32;4.70;;;;;;;8.70;72.30;99388.25;5054238;28;20033;-73
2023/05/19 00:26:13;;;;;;;8.27;5.07;;;;;;;8.70;72.32;99388.25;5054158;28;20108;-73
2023/05/19 00:28:38;;;;;;;5.80;4.65;;;;;;;8.70;72.32;99384.72;5054586;28;20025;-73
2023/05/19 00:31:04;;;;;;;8.77;4.97;;;;;;;8.71;72.50;99383.63;5054233;28;20031;-73
2023/05/19 00:33:29;;;;;;;8.02;5.00;;;;;;;8.70;72.30;99381.97;5054192;28;20397;-73
2023/05/19 00:35:55;;;;;;;8.18;5.50;;;;;;;8.67;72.72;99375.09;5053951;28;20381;-73
2023/05/19 00:38:20;;;;;;;8.90;5.30;;;;;;;8.69;72.95;99374.84;5053916;28;20029;-73
2023/05/19 00:40:46;;;;;;;8.45;5.72;;;;;;;8.67;73.08;99369.63;5053576;28;20037;-72
2023/05/19 00:43:11;;;;;;;11.98;5.47;;;;;;;8.69;72.51;99364.72;5053932;28;20424;-73
2023/05/19 00:45:37;;;;;;;8.23;4.80;;;;;;;8.69;73.02;99359.25;5053669;28;20033;-73
2023/05/19 00:48:02;;;;;;;9.15;5.10;;;;;;;8.69;72.98;99364.72;5054125;28;20179;-73
2023/05/19 00:50:28;;;;;;;10.02;5.47;;;;;;;8.70;72.94;99366.38;5053761;28;20052;-73
2023/05/19 00:52:54;;;;;;;7.88;4.85;;;;;;;8.69;73.15;99355.72;5052997;28;20108;-73
2023/05/19 00:55:27;;;;;;;9.65;5.05;;;;;;;8.70;72.71;99357.38;5053691;28;20037;-73
2023/05/19 00:57:54;;;;;;;8.07;5.43;;;;;;;8.68;73.14;99359.53;5053715;28;20110;-72
2023/05/19 01:00:20;;;;;;;9.23;5.13;;;;;;;8.67;72.66;99352.41;5053648;28;20036;-73
2023/05/19 01:02:45;;;;;;;7.50;4.57;;;;;;;8.68;73.27;99354.88;5053492;28;20029;-73
2023/05/19 01:05:11;;;;;;;10.38;6.63;;;;;;;8.68;73.57;99343.94;5054504;28;20108;-73
2023/05/19 01:07:37;;;;;;;9.15;5.55;;;;;;;8.69;73.38;99345.59;5051887;28;20025;-73
2023/05/19 01:10:03;;;;;;;9.35;6.20;;;;;;;8.71;73.19;99337.13;5053961;28;20024;-73
2023/05/19 01:12:28;;;;;;;9.15;6.22;;;;;;;8.71;73.72;99335.22;5053731;28;20041;-73
2023/05/19 01:14:55;;;;;;;8.80;5.65;;;;;;;8.69;73.10;99336.56;5053255;28;20108;-73
2023/05/19 01:17:48;;;;;;;10.63;5.85;;;;;;;8.66;73.04;99343.38;5054625;28;20025;-73
2023/05/19 01:20:16;;;;;;;9.02;5.15;;;;;;;8.67;73.00;99330.53;5054286;28;20063;-73
2023/05/19 01:23:20;;;;;;;8.52;5.68;;;;;;;8.61;73.43;99335.13;5054144;28;20079;-73
2023/05/19 01:26:15;;;;;;;8.70;5.88;;;;;;;8.60;73.10;99342.53;5053893;28;20032;-72
2023/05/19 01:29:11;;;;;;;8.63;6.45;;;;;;;8.57;72.89;99340.31;5054015;28;20029;-73
2023/05/19 01:31:40;;;;;;;9.65;6.43;;;;;;;8.56;73.14;99337.84;5054265;28;20025;-73
2023/05/19 01:34:08;;;;;;;10.40;6.68;;;;;;;8.53;73.63;99335.63;5054188;28;20059;-73
2023/05/19 01:36:34;;;;;;;11.75;6.00;;;;;;;8.51;73.11;99344.06;5053835;28;20569;-72
2023/05/19 01:39:01;;;;;;;9.68;6.55;;;;;;;8.48;73.20;99339.09;5053783;28;20143;-72
2023/05/19 01:41:29;;;;;;;10.52;6.60;;;;;;;8.45;73.32;99335.00;5053748;28;20025;-73
2023/05/19 01:43:55;;;;;;;11.10;6.90;;;;;;;8.44;73.80;99340.69;5053993;28;20052;-73
2023/05/19 01:46:22;;;;;;;11.98;6.78;;;;;;;8.44;73.81;99340.69;5053507;28;20020;-73
2023/05/19 01:48:48;;;;;;;10.43;7.40;;;;;;;8.44;74.19;99352.47;5053668;28;20021;-73
2023/05/19 01:51:13;;;;;;;11.65;7.05;;;;;;;8.45;73.61;99348.66;5053533;28;20021;-73
2023/05/19 01:53:39;;;;;;;12.90;7.80;;;;;;;8.47;74.16;99349.22;5053810;28;20025;-73
2023/05/19 01:56:05;;;;;;;11.25;7.38;;;;;;;8.49;74.14;99341.63;5053558;28;20032;-73
2023/05/19 01:58:51;;;;;;;10.88;7.47;;;;;;;8.50;73.65;99339.69;5053759;28;20091;-73
2023/05/19 02:01:29;;;;;;;10.70;7.28;;;;;;;8.49;73.61;99338.03;5053614;28;20029;-74
2023/05/19 02:04:25;;;;;;;14.63;7.80;;;;;;;8.49;74.36;99330.69;5052901;28;20119;-73
2023/05/19 02:07:25;;;;;;;11.82;7.50;;;;;;;8.51;74.14;99330.41;5053706;28;20033;-74
2023/05/19 02:10:09;;;;;;;14.98;7.95;;;;;;;8.55;74.21;99328.81;5049152;28;20033;-73
2023/05/19 02:12:38;;;;;;;19.17;10.25;;;;;;;8.57;74.40;99331.25;5053499;28;20060;-73
2023/05/19 02:15:06;;;;;;;16.70;8.83;;;;;;;8.56;73.91;99322.25;5053299;28;20025;-73
2023/05/19 02:17:35;;;;;;;11.85;8.57;;;;;;;8.58;74.40;99319.25;5053246;28;20021;-73
2023/05/19 02:20:03;;;;;;;12.50;7.87;;;;;;;8.60;74.18;99317.06;5053412;28;20369;-73
2023/05/19 02:22:29;;;;;;;16.65;8.55;;;;;;;8.59;74.09;99313.53;5053137;28;20036;-73
2023/05/19 02:24:56;;;;;;;15.55;8.30;;;;;;;8.60;73.97;99311.59;5053127;28;20033;-73
2023/05/19 02:27:21;;;;;;;12.57;7.80;;;;;;;8.61;74.35;99305.03;5053454;28;20040;-73
2023/05/19 02:29:47;;;;;;;17.98;8.73;;;;;;;8.61;74.55;99305.03;5053778;28;20024;-73
2023/05/19 02:32:13;;;;;;;13.52;8.23;;;;;;;8.61;74.68;99299.56;5053080;28;20021;-73
2023/05/19 02:34:41;;;;;;;14.93;8.32;;;;;;;8.61;74.69;99302.31;5053033;28;20116;-73
2023/05/19 02:37:06;;;;;;;12.93;7.80;;;;;;;8.61;74.82;99303.16;5053163;28;20029;-73
2023/05/19 02:39:34;;;;;;;12.48;7.78;;;;;;;8.60;74.78;99298.78;5052826;28;20049;-73
2023/05/19 02:42:00;;;;;;;14.57;8.48;;;;;;;8.59;74.47;99299.84;5052966;28;20025;-73
2023/05/19 02:44:25;;;;;;;12.45;7.75;;;;;;;8.59;74.33;99302.59;5052497;28;20056;-73
2023/05/19 02:46:51;;;;;;;11.77;7.50;;;;;;;8.58;74.72;99308.31;5053149;28;20025;-73
2023/05/19 02:49:16;;;;;;;11.35;7.72;;;;;;;8.57;74.48;99304.75;5052982;28;20021;-73
2023/05/19 02:51:41;;;;;;;11.63;7.72;;;;;;;8.58;75.07;99298.19;5052837;28;20088;-73
2023/05/19 02:54:07;;;;;;;13.60;7.57;;;;;;;8.55;74.47;99292.44;5053118;28;20021;-73
2023/05/19 02:56:32;;;;;;;11.65;7.88;;;;;;;8.55;75.13;99298.72;5052752;28;20482;-73
2023/05/19 02:58:58;;;;;;;11.45;7.60;;;;;;;8.55;74.60;99293.25;5052853;28;20190;-73
2023/05/19 03:01:23;;;;;;;13.00;7.97;;;;;;;8.53;74.89;99289.97;5052738;28;20104;-73
2023/05/19 03:03:48;;;;;;;12.13;7.82;;;;;;;8.47;75.21;99283.59;5052656;28;20068;-72
2023/05/19 03:06:14;;;;;;;12.23;7.47;;;;;;;8.49;74.80;99291.56;5052725;28;20029;-72
2023/05/19 03:08:39;;;;;;;11.65;7.45;;;;;;;8.52;74.69;99303.91;5052692;28;20104;-73
2023/05/19 03:11:05;;;;;;;11.25;7.22;;;;;;;8.53;75.17;99311.84;5051345;28;20013;-73
2023/05/19 03:13:30;;;;;;;11.40;7.45;;;;;;;8.56;74.61;99315.97;5052779;28;20029;-73
2023/05/19 03:15:57;;;;;;;12.35;8.32;;;;;;;8.57;74.86;99301.19;5053305;28;20025;-73
2023/05/19 03:18:23;;;;;;;12.65;8.07;;;;;;;8.59;74.99;99302.59;5036584;28;20033;-73
2023/05/19 03:20:49;;;;;;;9.52;7.07;;;;;;;8.61;74.53;99305.88;5036581;28;20037;-73
2023/05/19 03:23:15;;;;;;;11.90;7.45;;;;;;;8.63;74.86;99319.28;5036383;28;20109;-73
2023/05/19 03:25:40;;;;;;;13.68;7.90;;;;;;;8.64;75.09;99310.00;5036450;28;20048;-73
2023/05/19 03:28:05;;;;;;;12.35;7.43;;;;;;;8.64;75.40;99316.31;5036662;28;20072;-73
2023/05/19 03:30:31;;;;;;;10.73;6.82;;;;;;;8.68;74.90;99324.78;5036312;28;20034;-73
2023/05/19 03:32:56;;;;;;;11.55;7.90;;;;;;;8.68;75.29;99313.84;5039123;28;20028;-72
2023/05/19 03:35:22;;;;;;;11.30;7.95;;;;;;;8.70;75.49;99308.94;5056268;28;20430;-73
2023/05/19 03:37:47;;;;;;;8.98;6.60;;;;;;;8.72;75.21;99316.91;5056227;28;20028;-73
2023/05/19 03:40:12;;;;;;;13.27;8.32;;;;;;;8.74;75.53;99317.47;5056008;28;20091;-73
2023/05/19 03:42:38;;;;;;;11.13;7.07;;;;;;;8.77;75.59;99325.13;5055981;28;20397;-73
2023/05/19 03:45:04;;;;;;;10.98;7.05;;;;;;;8.76;75.70;99320.75;5055853;28;20035;-73
2023/05/19 03:47:30;;;;;;;11.73;7.32;;;;;;;8.76;75.65;99323.50;5056032;28;20040;-73
2023/05/19 03:49:55;;;;;;;9.82;6.80;;;;;;;8.76;75.50;99327.03;5056253;28;20423;-72
2023/05/19 03:52:21;;;;;;;10.40;7.03;;;;;;;8.78;75.31;99327.59;5055691;28;20115;-73
2023/05/19 03:54:46;;;;;;;10.15;7.40;;;;;;;8.81;75.84;99318.03;5056085;28;20025;-73
2023/05/19 03:57:13;;;;;;;11.15;7.32;;;;;;;8.86;75.86;99320.00;5055860;28;20477;-73
2023/05/19 03:59:40;;;;;;;11.82;7.38;;;;;;;8.87;75.62;99316.19;5055703;28;20040;-73
2023/05/19 04:02:05;;;;;;;10.95;7.40;;;;;;;8.91;76.04;99318.13;5055767;28;20128;-73
2023/05/19 04:04:31;;;;;;;9.95;6.88;;;;;;;8.91;75.36;99322.78;5054279;28;20035;-73
2023/05/19 04:06:56;;;;;;;10.02;7.70;;;;;;;8.92;75.73;99317.03;5055492;28;20393;-73
2023/05/19 04:09:22;;;;;;;12.57;7.45;;;;;;;8.96;75.69;99330.19;5055677;28;20135;-73
2023/05/19 04:11:48;;;;;;;9.60;7.20;;;;;;;8.96;75.41;99322.81;5055564;28;20021;-73
2023/05/19 04:14:14;;;;;;;10.93;7.30;;;;;;;9.00;75.78;99309.41;5055446;28;20032;-73
2023/05/19 04:16:40;;;;;;;9.52;6.82;;;;;;;9.05;75.83;99323.13;5055627;28;20029;-73
2023/05/19 04:19:06;;;;;;;10.52;6.93;;;;;;;9.09;75.61;99330.53;5055294;28;20469;-73
2023/05/19 04:21:31;;;;;;;9.93;6.70;;;;;;;9.11;75.40;99330.28;5055218;28;20394;-73
2023/05/19 04:23:58;;;;;;;10.35;7.07;;;;;;;9.12;75.33;99329.19;5055182;28;20032;-73
2023/05/19 04:26:25;;;;;;;10.35;6.00;;;;;;;9.14;75.36;99332.50;5055115;28;20025;-73
2023/05/19 04:28:52;;;;;;;9.52;6.70;;;;;;;9.19;75.66;99329.75;5054910;28;20060;-73
2023/05/19 04:31:20;;;;;;;10.00;6.38;;;;;;;9.26;75.41;99331.44;5055460;28;20431;-73
2023/05/19 04:33:46;;;;;;;9.52;6.30;;;;;;;9.25;76.16;99333.34;5055332;28;20048;-73
2023/05/19 04:36:12;;;;;;;10.90;6.70;;;;;;;9.26;75.61;99336.91;5055071;28;20035;-73
2023/05/19 04:38:38;;;;;;;9.45;6.20;;;;;;;9.29;75.98;99341.84;5054791;28;20033;-72
2023/05/19 04:41:05;;;;;;;9.93;6.65;;;;;;;9.32;75.72;99335.84;5054968;28;20116;-73
2023/05/19 04:43:31;;;;;;;11.02;7.22;;;;;;;9.32;75.88;99333.94;5055151;28;20449;-73
2023/05/19 04:45:57;;;;;;;9.85;7.07;;;;;;;9.37;76.02;99333.13;5055122;28;20123;-73
2023/05/19 04:48:22;;;;;;;8.90;6.55;;;;;;;9.43;76.08;99333.97;5054747;28;20033;-73
2023/05/19 04:50:48;;;;;;;10.30;6.88;;;;;;;9.47;75.81;99332.34;5055005;28;20017;-73
2023/05/19 04:53:14;;;;;;;10.05;6.90;;;;;;;9.53;76.32;99334.88;5054711;28;20484;-73
2023/05/19 04:55:39;;;;;;;10.75;6.43;;;;;;;9.58;75.74;99342.25;5054746;28;20025;-73
2023/05/19 04:58:05;;;;;;;10.32;7.10;;;;;;;9.61;75.99;99343.63;5054697;28;20029;-73
2023/05/19 05:00:31;;;;;;;8.65;6.60;;;;;;;9.63;75.70;99338.72;5054515;28;20476;-73
2023/05/19 05:02:56;;;;;;;11.27;6.75;;;;;;;9.63;75.45;99342.28;5054632;28;20029;-73
2023/05/19 05:05:23;;;;;;;11.57;7.20;;;;;;;9.64;75.51;99332.97;5054553;28;20032;-73
2023/05/19 05:07:48;;;;;;;10.18;7.30;;;;;;;9.67;75.93;99334.34;5054596;28;20385;-73
2023/05/19 05:10:14;;;;;;;11.68;7.45;;;;;;;9.73;75.65;99327.78;5054371;28;20029;-72
2023/05/19 05:12:40;;;;;;;10.48;7.05;;;;;;;9.74;76.15;99321.22;5054476;28;20029;-73
2023/05/19 05:15:06;;;;;;;10.10;6.68;;;;;;;9.75;75.67;99327.53;5054106;28;20033;-72
2023/05/19 05:17:34;;;;;;;11.10;7.25;;;;;;;9.74;75.69;99331.38;5054404;28;20025;-73
2023/05/19 05:20:00;;;;;;;12.25;7.72;;;;;;;9.77;76.03;99345.34;5054290;28;20029;-73
2023/05/19 05:22:26;;;;;;;12.07;8.18;;;;;;;9.80;75.85;99342.06;5054216;28;20028;-73
2023/05/19 05:24:52;;;;;;;12.07;7.43;;;;;;;9.85;76.01;99334.97;5054251;28;20109;-72
2023/05/19 05:27:17;;;;;;;12.68;7.85;;;;;;;9.87;76.05;99330.03;5052819;28;20387;-73
2023/05/19 05:29:43;;;;;;;11.15;7.93;;;;;;;9.90;75.84;99335.78;5053968;28;20147;-72
2023/05/19 05:32:08;;;;;;;10.93;7.85;;;;;;;9.93;75.81;99332.50;5053823;28;20072;-73
2023/05/19 05:34:36;;;;;;;13.60;8.20;;;;;;;9.95;75.49;99327.56;5053877;28;20362;-73
2023/05/19 05:37:01;;;;;;;11.55;8.27;;;;;;;10.00;75.85;99340.47;5053869;28;20032;-73
2023/05/19 05:39:27;;;;;;;11.98;8.00;;;;;;;10.01;75.34;99347.59;5053178;28;20040;-73
2023/05/19 05:41:52;;;;;;;12.70;7.57;;;;;;;10.03;76.22;99345.41;5049026;28;20402;-73
2023/05/19 05:44:18;;;;;;;14.88;7.93;;;;;;;10.02;75.79;99351.97;5032786;28;20435;-73
2023/05/19 05:46:43;;;;;;;12.60;7.78;;;;;;;10.04;76.19;99348.97;5033376;28;20028;-73
2023/05/19 05:49:11;;;;;;;13.48;7.60;;;;;;;10.07;75.93;99356.66;5040891;28;20489;-72
2023/05/19 05:51:36;;;;;;;12.60;7.32;;;;;;;10.07;76.21;99352.00;5034343;28;20033;-70
2023/05/19 05:54:05;;;;;;;12.75;8.32;;;;;;;10.09;75.38;99354.47;5051925;28;20380;-70
2023/05/19 05:56:32;;;;;;;13.97;8.20;;;;;;;10.11;75.60;99350.34;5054129;28;20029;-72
2023/05/19 05:58:58;;;;;;;12.20;7.80;;;;;;;10.14;75.61;99349.00;5051012;28;20542;-72
2023/05/19 06:01:23;;;;;;;11.75;8.05;;;;;;;10.16;75.64;99344.09;5049646;28;20033;-73
2023/05/19 06:03:49;;;;;;;11.65;7.88;;;;;;;10.20;75.67;99339.66;5052169;28;20040;-71
2023/05/19 06:06:15;;;;;;;12.20;8.10;;;;;;;10.24;76.16;99348.19;5051758;28;20035;-71
2023/05/19 06:08:40;;;;;;;14.00;8.15;;;;;;;10.27;75.58;99350.41;5052327;28;20035;-72
2023/05/19 06:11:07;;;;;;;13.20;7.82;;;;;;;10.31;76.41;99364.38;5047968;28;20029;-71
2023/05/19 06:13:34;;;;;;;12.70;7.68;;;;;;;10.35;75.75;99360.81;5048148;28;20036;-72
2023/05/19 06:16:01;;;;;;;14.00;7.72;;;;;;;10.40;76.07;99358.09;5052418;28;20530;-71
2023/05/19 06:18:26;;;;;;;10.95;7.05;;;;;;;10.45;75.52;99356.47;5046707;28;20100;-72
2023/05/19 06:20:52;;;;;;;12.10;7.35;;;;;;;10.49;75.33;99360.31;5045065;28;20120;-72
2023/05/19 06:23:17;;;;;;;10.18;7.13;;;;;;;10.51;76.11;99358.09;5049789;28;20061;-73
2023/05/19 06:25:42;;;;;;;12.27;7.95;;;;;;;10.49;75.00;99360.31;5050558;28;20029;-73
2023/05/19 06:28:08;;;;;;;11.27;7.15;;;;;;;10.51;76.22;99363.59;5051901;28;20069;-73
2023/05/19 06:30:33;;;;;;;10.45;7.40;;;;;;;10.50;76.29;99364.69;5054136;28;20029;-72
2023/05/19 06:32:59;;;;;;;10.88;7.15;;;;;;;10.53;75.94;99364.97;5052551;28;20039;-72
2023/05/19 06:35:24;;;;;;;10.35;6.57;;;;;;;10.57;75.04;99363.34;5050336;28;20036;-72
2023/05/19 06:37:50;;;;;;;8.52;6.28;;;;;;;10.63;75.61;99364.16;5050527;28;20056;-71
2023/05/19 06:40:15;;;;;;;9.88;6.88;;;;;;;10.67;76.21;99357.03;5057348;28;20064;-72
2023/05/19 06:42:41;;;;;;;10.25;6.20;;;;;;;10.72;75.88;99369.91;5049847;28;20428;-70
2023/05/19 06:45:06;;;;;;;10.10;6.72;;;;;;;10.76;75.92;99362.78;5032168;28;20116;-71
2023/05/19 06:47:32;;;;;;;11.07;6.65;;;;;;;10.82;75.85;99363.59;5033445;28;20025;-71
2023/05/19 06:49:57;;;;;;;10.95;6.40;;;;;;;10.89;76.09;99363.31;5046224;28;20476;-71
2023/05/19 06:52:23;;;;;;;9.30;5.72;;;;;;;10.95;75.16;99365.78;5047714;28;20029;-72
2023/05/19 06:54:49;;;;;;;9.60;5.97;;;;;;;10.98;75.29;99354.25;5056588;28;20066;-71
2023/05/19 06:57:14;;;;;;;11.52;6.07;;;;;;;11.04;75.54;99356.97;5056410;28;20044;-71
2023/05/19 06:59:42;;;;;;;10.80;5.97;;;;;;;11.12;75.45;99354.50;5056332;28;20388;-72
2023/05/19 07:02:07;;;;;;;8.70;5.97;;;;;;;11.20;75.65;99360.53;5056442;28;20029;-70
2023/05/19 07:04:34;;;;;;;9.52;6.25;;;;;;;11.26;75.59;99357.47;5056096;28;20406;-71
2023/05/19 07:06:59;;;;;;;9.05;5.40;;;;;;;11.36;75.52;99358.56;5056119;28;20469;-72
2023/05/19 07:09:25;;;;;;;7.07;4.93;;;;;;;11.42;75.10;99351.94;5056299;28;20111;-72
2023/05/19 07:11:50;;;;;;;8.48;4.88;;;;;;;11.50;75.49;99365.09;5056384;28;20370;-71
2023/05/19 07:14:15;;;;;;;5.80;4.55;;;;;;;11.56;74.79;99354.91;5056160;28;20362;-72
2023/05/19 07:16:41;;;;;;;7.50;4.63;;;;;;;11.59;75.25;99360.69;5056106;28;20104;-71
2023/05/19 07:19:06;;;;;;;6.80;4.57;;;;;;;11.62;74.50;99359.28;5055788;28;20465;-72
2023/05/19 07:21:31;;;;;;;6.00;4.65;;;;;;;11.60;74.81;99353.25;5055704;28;20047;-72
2023/05/19 07:23:57;;;;;;;8.10;4.32;;;;;;;11.59;74.80;99354.34;5055738;28;20071;-72
2023/05/19 07:26:22;;;;;;;8.95;4.90;;;;;;;11.57;74.37;99357.41;5055369;28;20032;-72
2023/05/19 07:28:48;;;;;;;7.75;5.05;;;;;;;11.60;74.13;99354.09;5055571;28;20489;-73
2023/05/19 07:31:13;;;;;;;6.20;4.22;;;;;;;11.62;74.71;99357.34;5054896;28;20033;-72
2023/05/19 07:33:39;;;;;;;6.88;4.15;;;;;;;11.64;75.02;99361.75;5055263;28;20020;-73
2023/05/19 07:36:05;;;;;;;5.68;3.78;;;;;;;11.65;74.61;99363.38;5055659;28;20470;-72
2023/05/19 07:38:33;;;;;;;6.20;4.35;;;;;;;11.61;74.21;99374.13;5055300;28;20032;-72
2023/05/19 07:40:58;;;;;;;7.30;4.15;;;;;;;11.57;74.00;99373.03;5055583;28;20021;-71
2023/05/19 07:43:24;;;;;;;7.35;4.30;;;;;;;11.52;74.02;99367.56;5055394;28;20496;-71
2023/05/19 07:45:49;;;;;;;6.15;4.13;;;;;;;11.53;74.60;99372.78;5055524;28;20024;-71
2023/05/19 07:48:17;;;;;;;9.25;4.68;;;;;;;11.56;74.20;99368.66;5055354;28;20031;-72
2023/05/19 07:50:42;;;;;;;6.82;4.72;;;;;;;11.57;74.00;99368.38;5055392;28;20046;-70
2023/05/19 07:53:08;;;;;;;5.90;4.55;;;;;;;11.61;74.52;99374.94;5055183;28;20112;-71
2023/05/19 07:55:33;;;;;;;6.88;4.65;;;;;;;11.65;73.83;99369.72;5055149;28;20053;-71
2023/05/19 07:57:59;;;;;;;7.03;4.40;;;;;;;11.70;74.18;99380.69;5055598;28;20036;-73
2023/05/19 08:00:25;;;;;;;7.22;5.05;;;;;;;11.77;74.13;99375.72;5055202;28;20074;-72
2023/05/19 08:02:51;;;;;;;8.95;6.10;;;;;;;11.83;74.33;99375.66;5054499;28;20017;-72
2023/05/19 08:05:17;;;;;;;7.70;5.72;;;;;;;11.87;73.91;99376.75;5054861;28;20774;-72
2023/05/19 08:07:45;;;;;;;7.43;5.20;;;;;;;11.88;74.00;99376.50;5055077;28;20033;-73
2023/05/19 08:10:11;;;;;;;7.05;4.60;;;;;;;11.91;74.14;99381.44;5054985;28;20025;-72
2023/05/19 08:12:36;;;;;;;9.40;5.28;;;;;;;11.95;74.08;99389.09;5054898;28;20033;-72
2023/05/19 08:15:01;;;;;;;6.88;5.32;;;;;;;11.99;73.93;99384.69;5053062;28;20107;-71
2023/05/19 08:17:27;;;;;;;9.50;4.50;;;;;;;12.01;73.26;99383.31;5053487;28;20048;-71
2023/05/19 08:19:52;;;;;;;6.97;4.65;;;;;;;12.01;73.64;99379.78;5054241;28;20037;-71
2023/05/19 08:22:18;;;;;;;5.75;4.05;;;;;;;11.99;73.07;99384.69;5054154;28;20063;-72
2023/05/19 08:24:43;;;;;;;6.55;4.63;;;;;;;11.96;73.56;99380.56;5054367;28;20032;-69
2023/05/19 08:27:09;;;;;;;6.55;4.40;;;;;;;11.97;73.46;99375.91;5053879;28;20024;-69
2023/05/19 08:29:35;;;;;;;8.95;5.65;;;;;;;12.03;73.64;99391.28;5054336;28;20060;-70
2023/05/19 08:32:01;;;;;;;12.88;7.70;;;;;;;12.12;73.43;99384.09;5053772;28;20024;-70
2023/05/19 08:34:27;;;;;;;22.23;11.32;;;;;;;12.22;73.39;99380.47;5052556;28;20096;-70
2023/05/19 08:36:52;;;;;;;18.42;9.18;;;;;;;12.31;73.56;99381.50;5052800;28;20101;-71
2023/05/19 08:39:22;;;;;;;10.98;6.13;;;;;;;12.36;72.87;99389.72;5051828;28;20041;-71
2023/05/19 08:41:48;;;;;;;59.55;25.65;;;;;;;12.42;72.95;99386.94;5051798;28;20060;-71
2023/05/19 08:44:14;;;;;;;8.98;6.53;;;;;;;12.50;72.87;99391.84;5051514;28;20061;-71
2023/05/19 08:46:40;;;;;;;9.43;5.22;;;;;;;12.59;73.11;99392.03;5052134;28;20542;-72
2023/05/19 08:49:11;;;;;;;7.70;5.55;;;;;;;12.69;72.90;99391.97;5051827;28;20021;-72
2023/05/19 08:51:40;;;;;;;6.85;5.05;;;;;;;12.78;72.70;99383.91;5052932;28;20033;-71
2023/05/19 08:54:14;;;;;;;6.90;5.13;;;;;;;12.91;72.92;99376.91;5052152;28;20111;-71
2023/05/19 08:56:45;;;;;;;8.68;5.50;;;;;;;13.05;72.88;99372.38;5049689;28;20473;-72
2023/05/19 08:59:13;;;;;;;6.53;4.72;;;;;;;13.14;72.42;99383.56;5053441;28;20025;-71
2023/05/19 09:01:41;;;;;;;6.50;5.10;;;;;;;13.14;72.04;99382.75;5054201;28;20108;-71
2023/05/19 09:04:07;;;;;;;7.85;5.80;;;;;;;13.10;72.28;99377.84;5053937;28;20044;-70
2023/05/19 09:06:33;;;;;;;7.88;5.88;;;;;;;13.10;71.89;99375.09;5053723;28;20127;-71
2023/05/19 09:08:59;;;;;;;8.48;5.97;;;;;;;13.15;71.80;99382.47;5053794;28;20025;-71
2023/05/19 09:11:24;;;;;;;8.27;5.93;;;;;;;13.23;71.59;99379.06;5053732;28;20028;-71
2023/05/19 09:13:50;;;;;;;9.13;5.70;;;;;;;13.26;71.61;99383.16;5052899;28;20071;-71
2023/05/19 09:16:16;;;;;;;10.57;6.13;;;;;;;13.31;71.30;99385.06;5053778;28;20516;-72
2023/05/19 09:18:56;;;;;;;10.07;6.50;;;;;;;13.33;71.64;99380.91;5053661;28;20025;-71
2023/05/19 09:21:31;;;;;;;10.73;7.50;;;;;;;13.46;71.50;99384.09;5052745;28;20378;-72
2023/05/19 09:24:02;;;;;;;9.38;6.10;;;;;;;13.51;71.18;99382.09;5052166;28;20501;-72
2023/05/19 09:26:41;;;;;;;6.75;5.57;;;;;;;13.58;70.97;99384.53;5052592;28;20112;-71
2023/05/19 09:29:16;;;;;;;9.30;6.28;;;;;;;13.62;70.43;99380.06;5053084;28;20039;-71
2023/05/19 09:31:49;;;;;;;10.27;5.82;;;;;;;13.61;70.25;99378.44;5053279;28;20112;-72
2023/05/19 09:34:15;;;;;;;7.57;5.10;;;;;;;13.55;70.11;99377.66;5052741;28;20021;-72
2023/05/19 09:36:41;;;;;;;8.52;5.20;;;;;;;13.46;70.08;99375.84;5052775;28;20017;-71
2023/05/19 09:39:16;;;;;;;7.22;5.63;;;;;;;13.38;70.00;99378.09;5052854;28;20041;-71
2023/05/19 09:41:42;;;;;;;8.20;5.95;;;;;;;13.34;70.45;99378.97;5051563;28;20052;-71
2023/05/19 09:44:20;;;;;;;6.72;5.40;;;;;;;13.30;70.25;99380.66;5052748;28;20125;-71
2023/05/19 09:46:49;;;;;;;7.50;5.68;;;;;;;13.30;70.32;99380.66;5052529;28;20021;-72
2023/05/19 09:49:29;;;;;;;7.75;5.68;;;;;;;13.25;70.25;99379.59;5052710;28;20029;-72
2023/05/19 09:51:56;;;;;;;10.63;6.63;;;;;;;13.23;70.35;99379.06;5053114;28;20036;-71
2023/05/19 09:54:23;;;;;;;9.20;6.10;;;;;;;13.20;70.33;99379.66;5052814;28;20024;-71
2023/05/19 09:57:02;;;;;;;10.48;9.40;;;;;;;13.18;70.29;99375.56;5053010;28;20495;-71
2023/05/19 09:59:29;;;;;;;18.10;15.18;;;;;;;13.17;70.56;99379.44;5052918;28;20025;-71
2023/05/19 10:01:56;;;;;;;10.55;7.90;;;;;;;13.17;70.29;99380.25;5053034;28;20036;-72
2023/05/19 10:04:26;;;;;;;9.05;6.47;;;;;;;13.17;70.34;99377.47;5052758;28;20374;-70
2023/05/19 10:06:52;;;;;;;;;;;;;;;13.18;70.30;99378.31;5053147;28;20066;-72
2023/05/19 10:09:25;;;;;;;17.15;14.93;;;;;;;13.20;70.17;99365.09;5052803;28;19912;-70
2023/05/19 10:11:52;;;;;;;9.77;7.35;;;;;;;13.25;70.16;99376.84;5053080;28;20151;-72
2023/05/19 10:14:22;;;;;;;13.85;10.55;;;;;;;13.27;70.19;99379.31;5052505;28;20021;-71
2023/05/19 10:16:50;;;;;;;18.02;16.13;;;;;;;13.31;70.45;99369.34;5052372;28;20032;-70
2023/05/19 10:19:17;;;;;;;14.82;12.00;;;;;;;13.36;70.32;99368.50;5051952;28;20028;-71
2023/05/19 10:21:43;;;;;;;16.30;12.98;;;;;;;13.40;70.26;99362.09;5050844;28;20021;-71
2023/05/19 10:24:08;;;;;;;12.13;9.98;;;;;;;13.44;70.10;99361.53;5049178;28;20106;-71
2023/05/19 10:26:34;;;;;;;20.33;15.15;;;;;;;13.52;70.03;99360.91;5050212;28;20049;-71
2023/05/19 10:29:02;;;;;;;13.65;10.25;;;;;;;13.60;70.14;99363.00;5051081;28;20045;-72
2023/05/19 10:31:30;;;;;;;13.68;9.52;;;;;;;13.71;70.07;99369.22;5051814;28;20025;-71
2023/05/19 10:34:13;;;;;;;9.30;6.93;;;;;;;13.78;69.99;99364.16;5050967;28;20051;-72
2023/05/19 10:36:46;;;;;;;9.90;7.43;;;;;;;13.84;69.75;99364.91;5051024;28;20017;-68
2023/05/19 10:39:24;;;;;;;11.38;7.63;;;;;;;13.88;69.42;99371.47;5050672;28;20108;-69
2023/05/19 10:42:08;;;;;;;12.07;8.70;;;;;;;13.90;69.35;99374.75;5051323;28;20044;-70
2023/05/19 10:45:01;;;;;;;10.38;8.15;;;;;;;13.91;69.21;99367.28;5051252;28;20037;-72
2023/05/19 10:47:26;;;;;;;11.10;8.70;;;;;;;13.96;69.26;99370.81;5051864;28;20139;-71
2023/05/19 10:49:52;;;;;;;10.23;8.25;;;;;;;14.04;69.12;99369.31;5051928;28;20032;-71
2023/05/19 10:52:24;;;;;;;11.07;8.98;;;;;;;14.11;69.19;99366.19;5052185;28;20021;-70
2023/05/19 10:54:53;;;;;;;10.57;8.45;;;;;;;14.23;69.23;99363.00;5052087;28;20489;-72
2023/05/19 10:57:25;;;;;;;11.25;8.45;;;;;;;14.36;68.77;99361.44;5052480;28;20056;-70
2023/05/19 10:59:51;;;;;;;9.45;7.55;;;;;;;14.40;68.90;99357.75;5052454;28;20070;-70
2023/05/19 11:02:42;;;;;;;10.90;8.00;;;;;;;14.46;69.03;99358.53;5052556;28;20108;-70
2023/05/19 11:05:13;;;;;;;13.10;8.32;;;;;;;14.53;68.15;99358.94;5052186;28;20036;-70
2023/05/19 11:08:04;;;;;;;12.27;7.88;;;;;;;14.62;68.55;99350.81;5052350;28;20056;-72
2023/05/19 11:10:29;;;;;;;10.52;7.65;;;;;;;14.71;68.34;99351.78;5052263;28;20033;-70
2023/05/19 11:12:56;;;;;;;14.80;9.85;;;;;;;14.80;68.84;99345.56;5052186;28;20043;-71
2023/05/19 11:15:25;;;;;;;12.77;9.00;;;;;;;14.87;68.52;99351.53;5052386;28;20087;-71
2023/05/19 11:17:51;;;;;;;11.10;8.00;;;;;;;14.88;67.84;99353.97;5049783;28;20033;-70
2023/05/19 11:20:25;;;;;;;10.93;8.05;;;;;;;14.92;67.68;99347.84;5043398;28;20036;-71
2023/05/19 11:23:05;;;;;;;13.02;8.73;;;;;;;14.94;67.88;99354.72;5033927;28;20029;-70
2023/05/19 11:25:50;;;;;;;12.07;7.93;;;;;;;14.96;67.87;99346.09;5047095;28;20033;-71
2023/05/19 11:28:24;;;;;;;13.50;8.52;;;;;;;14.98;67.76;99352.16;5050767;28;20120;-70
2023/05/19 11:30:52;;;;;;;13.05;8.50;;;;;;;14.95;66.68;99352.75;5050500;28;20052;-71
2023/05/19 11:33:18;;;;;;;11.98;7.95;;;;;;;14.85;67.00;99353.75;5046089;28;20056;-71
2023/05/19 11:35:49;;;;;;;11.10;8.00;;;;;;;14.77;67.19;99360.81;5049457;28;20104;-70